createdAt,value
2018-10-18T00:00:44.164Z,65.99
2018-10-18T00:03:13.503Z,65.78
2018-10-18T00:05:42.839Z,66.08
2018-10-18T00:08:12.183Z,66.48
2018-10-18T00:10:41.641Z,66.35
2018-10-18T00:13:10.940Z,66.37
2018-10-18T00:15:40.286Z,66.11
2018-10-18T00:18:09.750Z,66.37
2018-10-18T00:20:38.895Z,66.47
2018-10-18T00:23:08.344Z,66.66
2018-10-18T00:25:37.555Z,66.78
2018-10-18T00:28:06.944Z,66.57
2018-10-18T00:30:36.243Z,66.98
2018-10-18T00:33:05.846Z,66.75
2018-10-18T00:35:35.084Z,66.46
2018-10-18T00:38:04.533Z,66.98
2018-10-18T00:40:33.952Z,66.12
2018-10-18T00:43:03.658Z,65.60
2018-10-18T00:45:33.067Z,65.97
2018-10-18T00:48:02.609Z,66.77
2018-10-18T00:50:31.866Z,67.29
2018-10-18T00:53:01.472Z,67.85
2018-10-18T00:55:30.888Z,68.06
2018-10-18T00:58:00.378Z,67.60
2018-10-18T01:00:29.678Z,66.87
2018-10-18T01:02:59.036Z,66.56
2018-10-18T01:05:28.585Z,66.53
2018-10-18T01:07:57.994Z,66.62
2018-10-18T01:10:27.387Z,66.67
2018-10-18T01:12:56.607Z,67.38
2018-10-18T01:15:25.826Z,67.67
2018-10-18T01:17:55.303Z,67.37
2018-10-18T01:20:24.796Z,67.17
2018-10-18T01:22:54.325Z,66.64
2018-10-18T01:25:23.526Z,66.79
2018-10-18T01:27:52.722Z,66.83
2018-10-18T01:30:21.960Z,66.58
2018-10-18T01:32:51.286Z,66.42
2018-10-18T01:35:20.647Z,66.87
2018-10-18T01:37:49.841Z,66.96
2018-10-18T01:40:19.078Z,67.06
2018-10-18T01:42:48.273Z,66.42
2018-10-18T01:45:17.688Z,65.83
2018-10-18T01:47:47.084Z,66.04
2018-10-18T01:50:16.493Z,66.66
2018-10-18T01:52:45.719Z,66.54
2018-10-18T01:55:15.085Z,67.02
2018-10-18T01:57:44.302Z,67.85
2018-10-18T02:00:13.830Z,67.83
2018-10-18T02:02:43.292Z,68.69
2018-10-18T02:05:12.794Z,68.70
2018-10-18T02:07:41.991Z,68.55
2018-10-18T02:10:11.244Z,68.51
2018-10-18T02:12:40.491Z,68.38
2018-10-18T02:15:10.975Z,68.38
2018-10-18T02:17:40.828Z,68.09
2018-10-18T02:20:11.247Z,68.12
2018-10-18T02:22:41.273Z,67.62
2018-10-18T02:25:10.812Z,67.49
2018-10-18T02:27:40.003Z,68.02
2018-10-18T02:30:09.556Z,68.33
2018-10-18T02:32:38.877Z,68.62
2018-10-18T02:35:08.658Z,68.28
2018-10-18T02:37:38.095Z,67.35
2018-10-18T02:40:07.801Z,66.90
2018-10-18T02:42:37.280Z,67.26
2018-10-18T02:45:06.669Z,67.32
2018-10-18T02:47:35.922Z,67.46
2018-10-18T02:50:05.514Z,67.75
2018-10-18T02:52:34.921Z,67.26
2018-10-18T02:55:04.373Z,67.62
2018-10-18T02:57:33.714Z,67.50
2018-10-18T03:00:09.488Z,67.25
2018-10-18T03:02:38.962Z,67.33
2018-10-18T03:05:08.410Z,66.92
2018-10-18T03:07:37.602Z,66.86
2018-10-18T03:10:07.835Z,67.00
2018-10-18T03:12:37.298Z,67.09
2018-10-18T03:15:08.230Z,67.47
2018-10-18T03:17:37.534Z,67.36
2018-10-18T03:20:06.894Z,67.78
2018-10-18T03:22:36.240Z,68.15
2018-10-18T03:25:06.556Z,68.07
2018-10-18T03:27:36.039Z,68.68
2018-10-18T03:30:05.880Z,69.32
2018-10-18T03:32:35.175Z,69.42
2018-10-18T03:35:04.803Z,69.38
2018-10-18T03:37:34.091Z,69.25
2018-10-18T03:40:03.485Z,68.83
2018-10-18T03:42:32.983Z,69.08
2018-10-18T03:45:02.487Z,69.37
2018-10-18T03:47:31.991Z,69.27
2018-10-18T03:50:01.224Z,69.19
2018-10-18T03:52:30.421Z,69.12
2018-10-18T03:54:59.669Z,69.00
2018-10-18T03:57:28.911Z,69.45
2018-10-18T03:59:58.186Z,69.29
2018-10-18T04:02:27.685Z,68.90
2018-10-18T04:04:57.191Z,68.75
2018-10-18T04:07:26.592Z,69.44
2018-10-18T04:09:56.097Z,69.32
2018-10-18T04:12:25.617Z,69.38
2018-10-18T04:14:55.103Z,69.61
2018-10-18T04:17:24.612Z,69.19
2018-10-18T04:19:54.188Z,68.82
2018-10-18T04:22:23.534Z,68.91
2018-10-18T04:24:52.834Z,68.28
2018-10-18T04:27:22.215Z,68.14
2018-10-18T04:29:51.744Z,68.21
2018-10-18T04:32:21.070Z,68.54
2018-10-18T04:34:50.524Z,68.11
2018-10-18T04:37:19.942Z,68.35
2018-10-18T04:39:49.258Z,68.79
2018-10-18T04:42:18.688Z,69.22
2018-10-18T04:44:48.031Z,69.25
2018-10-18T04:47:17.529Z,69.60
2018-10-18T04:49:47.933Z,68.93
2018-10-18T04:52:17.258Z,68.49
2018-10-18T04:54:46.554Z,68.33
2018-10-18T04:57:15.783Z,68.29
2018-10-18T04:59:45.258Z,68.15
2018-10-18T05:02:14.762Z,68.40
2018-10-18T05:04:54.115Z,68.29
2018-10-18T05:07:23.282Z,67.97
2018-10-18T05:09:52.503Z,68.09
2018-10-18T05:12:21.673Z,68.17
2018-10-18T05:14:51.089Z,68.42
2018-10-18T05:17:20.494Z,68.76
2018-10-18T05:19:49.908Z,68.47
2018-10-18T05:22:19.293Z,68.83
2018-10-18T05:24:48.717Z,68.74
2018-10-18T05:27:18.041Z,68.20
2018-10-18T05:29:47.416Z,68.11
2018-10-18T05:32:16.825Z,68.41
2018-10-18T05:34:46.063Z,68.38
2018-10-18T05:37:15.276Z,68.52
2018-10-18T05:39:44.801Z,68.88
2018-10-18T05:42:14.234Z,68.84
2018-10-18T05:44:43.709Z,68.42
2018-10-18T05:47:13.143Z,68.26
2018-10-18T05:49:42.611Z,68.05
2018-10-18T05:52:12.122Z,67.89
2018-10-18T05:54:41.354Z,67.87
2018-10-18T05:57:10.591Z,68.52
2018-10-18T05:59:40.018Z,68.52
2018-10-18T06:02:09.434Z,68.86
2018-10-18T06:04:38.967Z,69.71
2018-10-18T06:07:08.437Z,70.24
2018-10-18T06:09:37.828Z,70.03
2018-10-18T06:12:07.234Z,70.53
2018-10-18T06:14:36.733Z,70.40
2018-10-18T06:17:06.480Z,70.71
2018-10-18T06:19:37.044Z,71.04
2018-10-18T06:22:06.732Z,70.98
2018-10-18T06:24:36.030Z,71.02
2018-10-18T06:27:05.266Z,71.23
2018-10-18T06:29:34.579Z,71.38
2018-10-18T06:32:03.801Z,71.75
2018-10-18T06:34:33.137Z,71.91
2018-10-18T06:37:02.452Z,71.79
2018-10-18T06:39:31.883Z,72.00
2018-10-18T06:42:01.102Z,72.09
2018-10-18T06:44:30.477Z,71.99
2018-10-18T06:47:00.087Z,72.23
2018-10-18T06:49:29.338Z,72.00
2018-10-18T06:51:58.580Z,72.38
2018-10-18T06:54:27.982Z,72.41
2018-10-18T06:56:57.487Z,72.53
2018-10-18T06:59:26.990Z,72.15
2018-10-18T07:01:56.493Z,71.45
2018-10-18T07:04:26.343Z,71.62
2018-10-18T07:06:57.084Z,71.97
2018-10-18T07:09:26.963Z,70.99
2018-10-18T07:11:56.898Z,71.09
2018-10-18T07:14:26.886Z,71.47
2018-10-18T07:16:56.681Z,71.82
2018-10-18T07:19:26.903Z,71.44
2018-10-18T07:21:56.689Z,71.90
2018-10-18T07:24:26.803Z,71.24
2018-10-18T07:26:56.695Z,71.31
2018-10-18T07:29:26.609Z,71.62
2018-10-18T07:31:56.176Z,71.47
2018-10-18T07:34:26.198Z,71.93
2018-10-18T07:36:55.977Z,71.99
2018-10-18T07:39:25.871Z,72.42
2018-10-18T07:41:55.633Z,71.83
2018-10-18T07:44:25.726Z,71.96
2018-10-18T07:46:55.498Z,71.73
2018-10-18T07:49:25.495Z,71.45
2018-10-18T07:51:55.712Z,71.32
2018-10-18T07:54:25.601Z,71.76
2018-10-18T07:56:55.531Z,71.37
2018-10-18T07:59:25.758Z,71.38
2018-10-18T08:01:55.733Z,72.12
2018-10-18T08:04:25.772Z,72.02
2018-10-18T08:06:55.580Z,72.11
2018-10-18T08:09:25.616Z,71.39
2018-10-18T08:11:55.528Z,70.86
2018-10-18T08:14:24.970Z,70.77
2018-10-18T08:16:55.010Z,71.03
2018-10-18T08:19:25.033Z,70.67
2018-10-18T08:21:54.537Z,71.56
2018-10-18T08:24:24.307Z,70.98
2018-10-18T08:26:54.177Z,70.73
2018-10-18T08:29:24.090Z,70.05
2018-10-18T08:31:54.268Z,71.26
2018-10-18T08:34:24.382Z,70.85
2018-10-18T08:36:54.342Z,70.19
2018-10-18T08:39:24.455Z,69.76
2018-10-18T08:41:54.472Z,69.81
2018-10-18T08:44:24.631Z,69.48
2018-10-18T08:46:54.468Z,68.44
2018-10-18T08:49:24.554Z,68.63
2018-10-18T08:51:54.500Z,68.64
2018-10-18T08:54:24.279Z,67.99
2018-10-18T08:56:54.371Z,67.86
2018-10-18T08:59:24.361Z,66.68
2018-10-18T09:01:54.792Z,66.23
2018-10-18T09:04:24.934Z,64.40
2018-10-18T09:06:54.755Z,63.06
2018-10-18T09:09:24.863Z,61.73
2018-10-18T09:11:54.882Z,60.87
2018-10-18T09:14:24.883Z,59.62
2018-10-18T09:16:54.621Z,62.00
2018-10-18T09:19:24.315Z,61.10
2018-10-18T09:21:54.259Z,60.72
2018-10-18T09:24:24.105Z,61.99
2018-10-18T09:26:54.218Z,63.34
2018-10-18T09:29:24.085Z,64.08
2018-10-18T09:31:53.963Z,65.01
2018-10-18T09:34:23.785Z,65.29
2018-10-18T09:36:54.136Z,65.63
2018-10-18T09:39:24.224Z,66.72
2018-10-18T09:41:54.430Z,65.72
2018-10-18T09:44:24.413Z,65.52
2018-10-18T09:46:54.271Z,65.21
2018-10-18T09:49:24.160Z,64.95
2018-10-18T09:51:54.677Z,65.07
2018-10-18T09:54:25.055Z,63.95
2018-10-18T09:56:55.098Z,63.65
2018-10-18T09:59:25.344Z,62.87
2018-10-18T10:02:01.290Z,61.78
2018-10-18T10:04:33.542Z,61.38
2018-10-18T10:07:03.553Z,60.02
2018-10-18T10:09:33.517Z,59.05
2018-10-18T10:12:04.319Z,57.51
2018-10-18T10:14:34.334Z,55.47
2018-10-18T10:17:04.231Z,56.48
2018-10-18T10:19:35.704Z,58.05
2018-10-18T10:22:05.910Z,57.68
2018-10-18T10:24:35.835Z,57.37
2018-10-18T10:27:05.863Z,57.64
2018-10-18T10:29:35.854Z,57.99
2018-10-18T10:32:05.948Z,58.19
2018-10-18T10:34:35.830Z,58.56
2018-10-18T10:37:06.592Z,58.80
2018-10-18T10:39:36.933Z,58.82
2018-10-18T10:42:07.486Z,59.09
2018-10-18T10:44:37.390Z,58.03
2018-10-18T10:47:07.873Z,59.17
2018-10-18T10:49:37.959Z,58.77
2018-10-18T10:52:08.130Z,59.13
2018-10-18T10:54:37.984Z,59.19
2018-10-18T10:57:07.838Z,58.68
2018-10-18T10:59:37.819Z,59.01
2018-10-18T11:02:08.251Z,59.66
2018-10-18T11:04:38.774Z,59.71
2018-10-18T11:07:08.834Z,59.63
2018-10-18T11:09:38.718Z,60.17
2018-10-18T11:12:08.970Z,60.45
2018-10-18T11:14:38.716Z,61.53
2018-10-18T11:17:08.600Z,62.26
2018-10-18T11:19:38.581Z,62.50
2018-10-18T11:22:08.756Z,61.06
2018-10-18T11:24:38.909Z,61.72
2018-10-18T11:27:09.289Z,62.18
2018-10-18T11:29:38.961Z,61.66
2018-10-18T11:32:09.225Z,61.19
2018-10-18T11:34:39.325Z,60.93
2018-10-18T11:37:09.141Z,60.73
2018-10-18T11:39:39.190Z,60.67
2018-10-18T11:42:09.292Z,60.78
2018-10-18T11:44:39.914Z,60.76
2018-10-18T11:47:11.058Z,60.92
2018-10-18T11:49:41.706Z,60.60
2018-10-18T11:52:11.703Z,60.93
2018-10-18T11:54:41.707Z,59.45
2018-10-18T11:57:11.641Z,59.90
2018-10-18T11:59:41.512Z,58.79
2018-10-18T12:02:11.431Z,58.57
2018-10-18T12:04:41.369Z,58.73
2018-10-18T12:07:11.480Z,59.49
2018-10-18T12:09:41.487Z,59.50
2018-10-18T12:12:11.287Z,59.28
2018-10-18T12:14:41.157Z,59.26
2018-10-18T12:17:11.242Z,59.18
2018-10-18T12:19:41.308Z,59.90
2018-10-18T12:22:11.148Z,60.07
2018-10-18T12:24:40.872Z,60.65
2018-10-18T12:27:11.136Z,60.96
2018-10-18T12:29:41.287Z,59.45
2018-10-18T12:32:11.025Z,59.25
2018-10-18T12:34:41.204Z,58.80
2018-10-18T12:37:11.363Z,57.57
2018-10-18T12:39:41.893Z,58.40
2018-10-18T12:42:11.808Z,58.39
2018-10-18T12:44:42.244Z,57.98
2018-10-18T12:47:12.777Z,57.61
2018-10-18T12:49:43.752Z,58.28
2018-10-18T12:52:14.351Z,57.97
2018-10-18T12:54:44.418Z,57.81
2018-10-18T12:57:15.153Z,58.32
2018-10-18T12:59:45.571Z,58.11
2018-10-18T13:02:15.535Z,57.36
2018-10-18T13:04:45.344Z,57.46
2018-10-18T13:07:14.938Z,58.11
2018-10-18T13:09:45.505Z,57.60
2018-10-18T13:12:15.349Z,55.38
2018-10-18T13:14:45.105Z,56.43
2018-10-18T13:17:15.122Z,55.93
2018-10-18T13:19:45.771Z,56.07
2018-10-18T13:22:15.655Z,54.23
2018-10-18T13:24:45.629Z,53.72
2018-10-18T13:27:15.403Z,53.21
2018-10-18T13:29:45.541Z,52.94
2018-10-18T13:32:15.407Z,54.42
2018-10-18T13:34:45.499Z,54.94
2018-10-18T13:37:15.495Z,56.36
2018-10-18T13:39:46.171Z,55.73
2018-10-18T13:42:16.371Z,54.81
2018-10-18T13:44:46.164Z,55.10
2018-10-18T13:47:16.004Z,54.79
2018-10-18T13:49:46.607Z,55.61
2018-10-18T13:52:16.423Z,55.25
2018-10-18T13:54:46.565Z,56.36
2018-10-18T13:57:16.423Z,56.95
2018-10-18T13:59:57.675Z,56.42
2018-10-18T14:02:27.666Z,56.31
2018-10-18T14:04:57.599Z,56.68
2018-10-18T14:07:28.196Z,56.00
2018-10-18T14:09:58.162Z,56.11
2018-10-18T14:12:28.059Z,55.53
2018-10-18T14:14:57.774Z,56.48
2018-10-18T14:17:27.977Z,56.01
2018-10-18T14:19:57.962Z,55.14
2018-10-18T14:22:28.929Z,55.57
2018-10-18T14:24:58.926Z,55.25
2018-10-18T14:27:29.182Z,55.02
2018-10-18T14:29:59.252Z,54.86
2018-10-18T14:32:29.473Z,55.25
2018-10-18T14:34:59.372Z,55.00
2018-10-18T14:37:29.145Z,54.83
2018-10-18T14:40:00.193Z,54.78
2018-10-18T14:42:30.141Z,54.16
2018-10-18T14:45:00.169Z,54.86
2018-10-18T14:47:30.109Z,54.77
2018-10-18T14:50:00.072Z,54.25
2018-10-18T14:52:29.856Z,54.83
2018-10-18T14:54:59.774Z,56.44
2018-10-18T14:57:29.808Z,56.14
2018-10-18T14:59:59.494Z,55.69
2018-10-18T15:02:29.466Z,55.76
2018-10-18T15:04:59.533Z,54.98
2018-10-18T15:07:29.395Z,55.63
2018-10-18T15:09:59.354Z,55.80
2018-10-18T15:12:29.769Z,55.78
2018-10-18T15:15:00.208Z,55.97
2018-10-18T15:17:30.328Z,56.90
2018-10-18T15:20:00.487Z,56.06
2018-10-18T15:22:36.894Z,56.24
2018-10-18T15:25:08.373Z,56.41
2018-10-18T15:27:38.222Z,56.67
2018-10-18T15:30:08.849Z,57.28
2018-10-18T15:32:39.342Z,55.43
2018-10-18T15:35:10.798Z,54.54
2018-10-18T15:37:41.576Z,54.14
2018-10-18T15:40:11.534Z,54.66
2018-10-18T15:42:41.444Z,55.09
2018-10-18T15:45:13.054Z,54.54
2018-10-18T15:47:44.562Z,54.95
2018-10-18T15:50:14.431Z,55.08
2018-10-18T15:52:44.559Z,56.15
2018-10-18T15:55:14.406Z,56.41
2018-10-18T15:57:44.144Z,56.40
2018-10-18T16:00:13.734Z,56.59
2018-10-18T16:02:43.344Z,56.12
2018-10-18T16:05:12.940Z,56.33
2018-10-18T16:07:42.324Z,56.23
2018-10-18T16:10:11.866Z,56.48
2018-10-18T16:12:41.711Z,56.21
2018-10-18T16:15:12.251Z,56.14
2018-10-18T16:17:42.695Z,56.42
2018-10-18T16:20:11.994Z,56.57
2018-10-18T16:22:41.320Z,56.50
2018-10-18T16:25:11.655Z,55.85
2018-10-18T16:27:41.583Z,55.49
2018-10-18T16:30:10.863Z,56.05
2018-10-18T16:32:40.343Z,56.85
2018-10-18T16:35:10.180Z,56.85
2018-10-18T16:37:39.979Z,56.38
2018-10-18T16:40:09.669Z,56.96
2018-10-18T16:42:38.972Z,56.46
2018-10-18T16:45:10.576Z,55.97
2018-10-18T16:47:40.040Z,55.42
2018-10-18T16:50:11.155Z,55.26
2018-10-18T16:52:40.878Z,55.29
2018-10-18T16:55:10.586Z,56.04
2018-10-18T16:57:40.091Z,55.84
2018-10-18T17:00:10.546Z,56.27
2018-10-18T17:02:40.129Z,55.96
2018-10-18T17:05:09.527Z,56.46
2018-10-18T17:07:38.927Z,57.14
2018-10-18T17:10:08.252Z,57.08
2018-10-18T17:12:37.730Z,56.56
2018-10-18T17:15:07.758Z,56.32
2018-10-18T17:17:37.579Z,56.40
2018-10-18T17:20:07.875Z,56.33
2018-10-18T17:22:37.354Z,56.59
2018-10-18T17:25:07.260Z,56.50
2018-10-18T17:27:36.722Z,56.91
2018-10-18T17:30:06.345Z,57.27
2018-10-18T17:32:35.878Z,57.51
2018-10-18T17:35:06.294Z,57.35
2018-10-18T17:37:35.533Z,57.48
2018-10-18T17:40:07.275Z,57.56
2018-10-18T17:42:36.563Z,58.25
2018-10-18T17:45:07.563Z,57.99
2018-10-18T17:47:36.917Z,56.84
2018-10-18T17:50:06.731Z,56.66
2018-10-18T17:52:36.562Z,56.65
2018-10-18T17:55:06.669Z,56.57
2018-10-18T17:57:36.420Z,56.41
2018-10-18T18:00:08.444Z,56.70
2018-10-18T18:02:38.067Z,56.70
2018-10-18T18:05:07.912Z,56.48
2018-10-18T18:07:37.445Z,56.74
2018-10-18T18:10:09.112Z,56.21
2018-10-18T18:12:39.455Z,56.48
2018-10-18T18:15:09.469Z,56.39
2018-10-18T18:17:39.180Z,55.71
2018-10-18T18:20:09.653Z,56.09
2018-10-18T18:22:39.270Z,55.71
2018-10-18T18:25:10.267Z,56.03
2018-10-18T18:27:39.665Z,56.10
2018-10-18T18:30:12.674Z,56.47
2018-10-18T18:32:42.557Z,56.47
2018-10-18T18:35:11.978Z,56.79
2018-10-18T18:37:41.402Z,57.41
2018-10-18T18:40:11.269Z,56.95
2018-10-18T18:42:41.185Z,56.71
2018-10-18T18:45:15.763Z,56.34
2018-10-18T18:47:45.029Z,56.51
2018-10-18T18:50:14.422Z,55.53
2018-10-18T18:52:43.915Z,55.90
2018-10-18T18:55:13.419Z,56.89
2018-10-18T18:57:42.819Z,57.08
2018-10-18T19:00:12.136Z,56.94
2018-10-18T19:02:41.440Z,56.33
2018-10-18T19:05:10.751Z,56.72
2018-10-18T19:07:40.012Z,56.60
2018-10-18T19:10:09.559Z,56.79
2018-10-18T19:12:39.025Z,56.84
2018-10-18T19:15:09.617Z,57.09
2018-10-18T19:17:39.894Z,56.33
2018-10-18T19:20:09.491Z,56.08
2018-10-18T19:22:38.963Z,56.40
2018-10-18T19:25:08.832Z,56.77
2018-10-18T19:27:38.477Z,56.20
2018-10-18T19:30:09.435Z,56.20
2018-10-18T19:32:38.950Z,56.23
2018-10-18T19:35:08.743Z,56.14
2018-10-18T19:37:38.171Z,56.39
2018-10-18T19:40:08.368Z,56.35
2018-10-18T19:42:37.890Z,56.39
2018-10-18T19:45:08.366Z,56.40
2018-10-18T19:47:37.921Z,56.74
2018-10-18T19:50:07.886Z,56.46
2018-10-18T19:52:37.389Z,56.53
2018-10-18T19:55:07.773Z,56.95
2018-10-18T19:57:37.216Z,56.45
2018-10-18T20:00:07.905Z,56.94
2018-10-18T20:02:37.472Z,56.65
2018-10-18T20:05:07.716Z,57.22
2018-10-18T20:07:37.048Z,56.72
2018-10-18T20:10:07.351Z,56.92
2018-10-18T20:12:36.858Z,57.18
2018-10-18T20:15:07.266Z,57.05
2018-10-18T20:17:36.873Z,56.78
2018-10-18T20:20:07.988Z,56.78
2018-10-18T20:22:37.385Z,56.91
2018-10-18T20:25:08.196Z,56.88
2018-10-18T20:27:37.567Z,56.93
2018-10-18T20:30:09.527Z,57.05
2018-10-18T20:32:38.890Z,57.86
2018-10-18T20:35:08.579Z,58.27
2018-10-18T20:37:38.254Z,58.13
2018-10-18T20:40:10.120Z,57.78
2018-10-18T20:42:39.816Z,57.12
2018-10-18T20:45:11.669Z,57.74
2018-10-18T20:47:41.279Z,58.08
2018-10-18T20:50:10.683Z,58.23
2018-10-18T20:52:40.171Z,58.06
2018-10-18T20:55:09.868Z,58.41
2018-10-18T20:57:39.380Z,58.00
2018-10-18T21:00:09.375Z,58.10
2018-10-18T21:02:38.793Z,58.70
2018-10-18T21:05:08.627Z,58.45
2018-10-18T21:07:38.136Z,58.38
2018-10-18T21:10:07.744Z,58.05
2018-10-18T21:12:36.985Z,58.32
2018-10-18T21:15:06.412Z,59.38
2018-10-18T21:17:35.668Z,59.03
2018-10-18T21:20:05.518Z,59.13
2018-10-18T21:22:34.935Z,59.01
2018-10-18T21:25:04.606Z,59.01
2018-10-18T21:27:33.977Z,58.89
2018-10-18T21:30:03.468Z,58.92
2018-10-18T21:32:33.075Z,60.13
2018-10-18T21:35:02.663Z,60.00
2018-10-18T21:37:32.089Z,59.91
2018-10-18T21:40:01.487Z,59.67
2018-10-18T21:42:30.886Z,59.16
2018-10-18T21:45:01.085Z,58.84
2018-10-18T21:47:30.663Z,58.64
2018-10-18T21:50:00.226Z,58.74
2018-10-18T21:52:29.623Z,59.93
2018-10-18T21:54:58.908Z,59.87
2018-10-18T21:57:28.240Z,59.21
2018-10-18T21:59:57.489Z,59.17
2018-10-18T22:02:26.760Z,60.46
2018-10-18T22:04:56.275Z,59.67
2018-10-18T22:07:25.726Z,59.30
2018-10-18T22:09:55.231Z,59.06
2018-10-18T22:12:24.736Z,59.31
2018-10-18T22:14:54.280Z,59.76
2018-10-18T22:17:23.849Z,60.30
2018-10-18T22:19:53.250Z,60.16
2018-10-18T22:22:22.652Z,60.66
2018-10-18T22:24:52.154Z,60.36
2018-10-18T22:27:21.404Z,60.21
2018-10-18T22:29:50.700Z,60.34
2018-10-18T22:32:20.157Z,60.19
2018-10-18T22:34:49.434Z,59.88
2018-10-18T22:37:18.803Z,59.68
2018-10-18T22:39:48.102Z,59.98
2018-10-18T22:42:18.224Z,60.32
2018-10-18T22:44:47.600Z,60.27
2018-10-18T22:47:16.883Z,60.57
2018-10-18T22:49:46.302Z,60.72
2018-10-18T22:52:15.696Z,60.91
2018-10-18T22:54:45.083Z,60.42
2018-10-18T22:57:14.635Z,60.64
2018-10-18T22:59:44.089Z,60.49
2018-10-18T23:02:13.591Z,61.03
2018-10-18T23:04:43.046Z,61.23
2018-10-18T23:07:12.497Z,62.01
2018-10-18T23:09:41.977Z,62.23
2018-10-18T23:12:11.354Z,62.16
2018-10-18T23:14:40.635Z,62.24
2018-10-18T23:17:10.151Z,61.70
2018-10-18T23:19:39.667Z,61.60
2018-10-18T23:22:09.611Z,62.28
2018-10-18T23:24:39.889Z,62.25
2018-10-18T23:27:09.508Z,62.04
2018-10-18T23:29:40.007Z,61.44
2018-10-18T23:32:09.756Z,61.55
2018-10-18T23:34:39.399Z,61.33
2018-10-18T23:37:08.805Z,60.96
2018-10-18T23:39:38.306Z,61.42
2018-10-18T23:42:07.812Z,61.77
2018-10-18T23:44:37.211Z,60.85
2018-10-18T23:47:06.881Z,60.37
2018-10-18T23:49:36.223Z,60.88
2018-10-18T23:52:05.867Z,60.69
2018-10-18T23:54:35.331Z,61.22
2018-10-18T23:57:04.795Z,61.46
2018-10-18T23:59:34.344Z,62.68
